sensor_id;sensor_type;location;lat;lon;timestamp;P1;durP1;ratioP1;P2;durP2;ratioP2
2035;SDS011;23642;42.658;23.350;2023-07-31T00:00:28;97.37;;;91.57;;
2035;SDS011;23642;42.658;23.350;2023-07-31T00:02:56;98.77;;;93.03;;
2035;SDS011;23642;42.658;23.350;2023-07-31T00:05:23;99.57;;;93.77;;
2035;SDS011;23642;42.658;23.350;2023-07-31T00:07:50;102.70;;;96.60;;
2035;SDS011;23642;42.658;23.350;2023-07-31T00:10:19;105.00;;;98.70;;
2035;SDS011;23642;42.658;23.350;2023-07-31T00:12:47;101.07;;;95.20;;
2035;SDS011;23642;42.658;23.350;2023-07-31T00:15:14;101.53;;;95.63;;
2035;SDS011;23642;42.658;23.350;2023-07-31T00:17:41;100.00;;;94.20;;
2035;SDS011;23642;42.658;23.350;2023-07-31T00:20:08;100.37;;;94.37;;
2035;SDS011;23642;42.658;23.350;2023-07-31T00:22:36;101.43;;;95.53;;
2035;SDS011;23642;42.658;23.350;2023-07-31T00:25:03;102.77;;;96.87;;
2035;SDS011;23642;42.658;23.350;2023-07-31T00:27:31;101.53;;;95.63;;
2035;SDS011;23642;42.658;23.350;2023-07-31T00:29:59;100.80;;;94.83;;
2035;SDS011;23642;42.658;23.350;2023-07-31T00:32:26;99.70;;;93.80;;
2035;SDS011;23642;42.658;23.350;2023-07-31T00:34:53;99.47;;;93.47;;
2035;SDS011;23642;42.658;23.350;2023-07-31T00:37:20;98.70;;;92.83;;
2035;SDS011;23642;42.658;23.350;2023-07-31T00:39:47;100.60;;;94.70;;
2035;SDS011;23642;42.658;23.350;2023-07-31T00:42:16;100.10;;;94.20;;
2035;SDS011;23642;42.658;23.350;2023-07-31T00:44:43;98.03;;;92.23;;
2035;SDS011;23642;42.658;23.350;2023-07-31T00:47:11;99.33;;;93.53;;
2035;SDS011;23642;42.658;23.350;2023-07-31T00:49:38;97.17;;;91.47;;
2035;SDS011;23642;42.658;23.350;2023-07-31T00:52:06;99.40;;;93.60;;
2035;SDS011;23642;42.658;23.350;2023-07-31T00:54:33;97.50;;;91.67;;
2035;SDS011;23642;42.658;23.350;2023-07-31T00:57:01;97.00;;;91.20;;
2035;SDS011;23642;42.658;23.350;2023-07-31T00:59:28;98.27;;;92.47;;
2035;SDS011;23642;42.658;23.350;2023-07-31T01:01:58;101.10;;;95.10;;
2035;SDS011;23642;42.658;23.350;2023-07-31T01:04:32;99.70;;;93.70;;
2035;SDS011;23642;42.658;23.350;2023-07-31T01:07:00;97.63;;;91.83;;
2035;SDS011;23642;42.658;23.350;2023-07-31T01:09:34;97.10;;;91.20;;
2035;SDS011;23642;42.658;23.350;2023-07-31T01:12:07;100.50;;;94.30;;
2035;SDS011;23642;42.658;23.350;2023-07-31T01:14:35;102.67;;;96.30;;
2035;SDS011;23642;42.658;23.350;2023-07-31T01:17:02;101.97;;;95.83;;
2035;SDS011;23642;42.658;23.350;2023-07-31T01:19:29;100.87;;;94.77;;
2035;SDS011;23642;42.658;23.350;2023-07-31T01:22:12;99.00;;;93.00;;
2035;SDS011;23642;42.658;23.350;2023-07-31T01:24:54;100.47;;;94.37;;
2035;SDS011;23642;42.658;23.350;2023-07-31T01:27:28;101.27;;;95.07;;
2035;SDS011;23642;42.658;23.350;2023-07-31T01:29:59;98.57;;;92.30;;
2035;SDS011;23642;42.658;23.350;2023-07-31T01:32:35;104.20;;;97.70;;
2035;SDS011;23642;42.658;23.350;2023-07-31T01:35:06;102.70;;;96.20;;
2035;SDS011;23642;42.658;23.350;2023-07-31T01:37:33;105.63;;;99.10;;
2035;SDS011;23642;42.658;23.350;2023-07-31T01:40:01;105.00;;;98.40;;
2035;SDS011;23642;42.658;23.350;2023-07-31T01:42:31;103.47;;;96.97;;
2035;SDS011;23642;42.658;23.350;2023-07-31T01:44:58;110.20;;;103.10;;
2035;SDS011;23642;42.658;23.350;2023-07-31T01:47:24;106.97;;;100.17;;
2035;SDS011;23642;42.658;23.350;2023-07-31T01:49:51;102.73;;;96.13;;
2035;SDS011;23642;42.658;23.350;2023-07-31T01:52:18;110.47;;;103.23;;
2035;SDS011;23642;42.658;23.350;2023-07-31T01:54:45;109.97;;;102.47;;
2035;SDS011;23642;42.658;23.350;2023-07-31T01:57:12;112.43;;;105.00;;
2035;SDS011;23642;42.658;23.350;2023-07-31T01:59:41;108.97;;;101.87;;
2035;SDS011;23642;42.658;23.350;2023-07-31T02:02:07;112.63;;;105.13;;
2035;SDS011;23642;42.658;23.350;2023-07-31T02:04:35;109.80;;;102.67;;
2035;SDS011;23642;42.658;23.350;2023-07-31T02:07:03;111.53;;;104.00;;
2035;SDS011;23642;42.658;23.350;2023-07-31T02:09:30;108.27;;;100.97;;
2035;SDS011;23642;42.658;23.350;2023-07-31T02:11:57;111.33;;;103.90;;
2035;SDS011;23642;42.658;23.350;2023-07-31T02:14:24;109.60;;;102.60;;
2035;SDS011;23642;42.658;23.350;2023-07-31T02:16:53;114.73;;;107.03;;
2035;SDS011;23642;42.658;23.350;2023-07-31T02:19:20;111.83;;;104.30;;
2035;SDS011;23642;42.658;23.350;2023-07-31T02:21:47;111.50;;;104.13;;
2035;SDS011;23642;42.658;23.350;2023-07-31T02:24:15;113.37;;;106.07;;
2035;SDS011;23642;42.658;23.350;2023-07-31T02:26:42;111.30;;;104.03;;
2035;SDS011;23642;42.658;23.350;2023-07-31T02:29:09;113.17;;;105.67;;
2035;SDS011;23642;42.658;23.350;2023-07-31T02:31:36;109.67;;;102.43;;
2035;SDS011;23642;42.658;23.350;2023-07-31T02:34:04;111.07;;;103.57;;
2035;SDS011;23642;42.658;23.350;2023-07-31T02:36:31;112.87;;;105.20;;
2035;SDS011;23642;42.658;23.350;2023-07-31T02:38:57;109.83;;;102.53;;
2035;SDS011;23642;42.658;23.350;2023-07-31T02:41:24;111.73;;;104.43;;
2035;SDS011;23642;42.658;23.350;2023-07-31T02:43:54;109.33;;;102.23;;
2035;SDS011;23642;42.658;23.350;2023-07-31T02:46:21;109.23;;;102.03;;
2035;SDS011;23642;42.658;23.350;2023-07-31T02:48:50;109.87;;;102.63;;
2035;SDS011;23642;42.658;23.350;2023-07-31T02:51:18;112.90;;;105.50;;
2035;SDS011;23642;42.658;23.350;2023-07-31T02:53:48;110.73;;;103.70;;
2035;SDS011;23642;42.658;23.350;2023-07-31T02:56:15;113.43;;;106.20;;
2035;SDS011;23642;42.658;23.350;2023-07-31T02:58:45;109.00;;;101.80;;
2035;SDS011;23642;42.658;23.350;2023-07-31T03:01:12;113.30;;;105.93;;
2035;SDS011;23642;42.658;23.350;2023-07-31T03:03:40;110.60;;;103.40;;
2035;SDS011;23642;42.658;23.350;2023-07-31T03:06:07;112.30;;;104.93;;
2035;SDS011;23642;42.658;23.350;2023-07-31T03:08:35;112.37;;;104.97;;
2035;SDS011;23642;42.658;23.350;2023-07-31T03:11:02;116.00;;;108.40;;
2035;SDS011;23642;42.658;23.350;2023-07-31T03:13:29;113.17;;;105.90;;
2035;SDS011;23642;42.658;23.350;2023-07-31T03:15:56;112.60;;;105.20;;
2035;SDS011;23642;42.658;23.350;2023-07-31T03:18:22;116.47;;;108.70;;
2035;SDS011;23642;42.658;23.350;2023-07-31T03:20:49;112.20;;;104.90;;
2035;SDS011;23642;42.658;23.350;2023-07-31T03:23:16;115.70;;;108.10;;
2035;SDS011;23642;42.658;23.350;2023-07-31T03:25:56;113.20;;;105.70;;
2035;SDS011;23642;42.658;23.350;2023-07-31T03:28:23;112.80;;;105.10;;
2035;SDS011;23642;42.658;23.350;2023-07-31T03:30:50;111.43;;;104.13;;
2035;SDS011;23642;42.658;23.350;2023-07-31T03:33:17;108.80;;;101.50;;
2035;SDS011;23642;42.658;23.350;2023-07-31T03:35:45;113.67;;;105.87;;
2035;SDS011;23642;42.658;23.350;2023-07-31T03:38:12;109.87;;;102.43;;
2035;SDS011;23642;42.658;23.350;2023-07-31T03:40:39;110.27;;;102.67;;
2035;SDS011;23642;42.658;23.350;2023-07-31T03:43:07;113.93;;;106.00;;
2035;SDS011;23642;42.658;23.350;2023-07-31T03:45:34;111.10;;;103.47;;
2035;SDS011;23642;42.658;23.350;2023-07-31T03:48:02;113.17;;;105.57;;
2035;SDS011;23642;42.658;23.350;2023-07-31T03:50:30;109.47;;;101.90;;
2035;SDS011;23642;42.658;23.350;2023-07-31T03:52:56;110.77;;;103.10;;
2035;SDS011;23642;42.658;23.350;2023-07-31T03:55:23;113.17;;;105.27;;
2035;SDS011;23642;42.658;23.350;2023-07-31T03:57:50;112.10;;;104.27;;
2035;SDS011;23642;42.658;23.350;2023-07-31T04:00:19;109.10;;;101.60;;
2035;SDS011;23642;42.658;23.350;2023-07-31T04:02:47;109.87;;;102.30;;
2035;SDS011;23642;42.658;23.350;2023-07-31T04:05:14;110.33;;;102.70;;
2035;SDS011;23642;42.658;23.350;2023-07-31T04:07:41;110.40;;;102.73;;
2035;SDS011;23642;42.658;23.350;2023-07-31T04:10:08;107.47;;;99.93;;
2035;SDS011;23642;42.658;23.350;2023-07-31T04:12:35;112.57;;;104.67;;
2035;SDS011;23642;42.658;23.350;2023-07-31T04:15:02;113.60;;;105.60;;
2035;SDS011;23642;42.658;23.350;2023-07-31T04:17:31;110.10;;;102.33;;
2035;SDS011;23642;42.658;23.350;2023-07-31T04:19:58;112.57;;;104.33;;
2035;SDS011;23642;42.658;23.350;2023-07-31T04:22:28;115.40;;;107.27;;
2035;SDS011;23642;42.658;23.350;2023-07-31T04:24:55;112.23;;;104.13;;
2035;SDS011;23642;42.658;23.350;2023-07-31T04:27:22;113.83;;;105.70;;
2035;SDS011;23642;42.658;23.350;2023-07-31T04:29:48;115.00;;;106.67;;
2035;SDS011;23642;42.658;23.350;2023-07-31T04:32:16;115.70;;;107.20;;
2035;SDS011;23642;42.658;23.350;2023-07-31T04:34:44;113.90;;;106.00;;
2035;SDS011;23642;42.658;23.350;2023-07-31T04:37:12;114.93;;;106.90;;
2035;SDS011;23642;42.658;23.350;2023-07-31T04:39:39;112.60;;;104.50;;
2035;SDS011;23642;42.658;23.350;2023-07-31T04:42:06;114.53;;;106.43;;
2035;SDS011;23642;42.658;23.350;2023-07-31T04:44:33;116.87;;;108.10;;
2035;SDS011;23642;42.658;23.350;2023-07-31T04:47:00;114.77;;;106.77;;
2035;SDS011;23642;42.658;23.350;2023-07-31T04:49:27;114.33;;;106.43;;
2035;SDS011;23642;42.658;23.350;2023-07-31T04:51:55;111.47;;;103.47;;
2035;SDS011;23642;42.658;23.350;2023-07-31T04:54:23;117.10;;;108.60;;
2035;SDS011;23642;42.658;23.350;2023-07-31T04:56:50;113.77;;;105.53;;
2035;SDS011;23642;42.658;23.350;2023-07-31T04:59:17;115.60;;;107.40;;
2035;SDS011;23642;42.658;23.350;2023-07-31T05:01:44;116.17;;;107.93;;
2035;SDS011;23642;42.658;23.350;2023-07-31T05:04:12;112.93;;;105.03;;
2035;SDS011;23642;42.658;23.350;2023-07-31T05:06:39;115.97;;;107.97;;
2035;SDS011;23642;42.658;23.350;2023-07-31T05:09:08;118.40;;;109.93;;
2035;SDS011;23642;42.658;23.350;2023-07-31T05:11:35;116.00;;;107.93;;
2035;SDS011;23642;42.658;23.350;2023-07-31T05:14:02;112.23;;;104.50;;
2035;SDS011;23642;42.658;23.350;2023-07-31T05:16:29;112.23;;;104.60;;
2035;SDS011;23642;42.658;23.350;2023-07-31T05:18:56;113.20;;;105.43;;
2035;SDS011;23642;42.658;23.350;2023-07-31T05:21:23;114.43;;;106.33;;
2035;SDS011;23642;42.658;23.350;2023-07-31T05:23:50;115.60;;;106.80;;
2035;SDS011;23642;42.658;23.350;2023-07-31T05:26:18;116.70;;;108.60;;
2035;SDS011;23642;42.658;23.350;2023-07-31T05:28:45;115.40;;;107.60;;
2035;SDS011;23642;42.658;23.350;2023-07-31T05:31:12;112.27;;;104.70;;
2035;SDS011;23642;42.658;23.350;2023-07-31T05:33:39;112.90;;;105.33;;
2035;SDS011;23642;42.658;23.350;2023-07-31T05:36:06;111.67;;;104.00;;
2035;SDS011;23642;42.658;23.350;2023-07-31T05:38:33;110.40;;;102.87;;
2035;SDS011;23642;42.658;23.350;2023-07-31T05:41:01;111.73;;;104.03;;
2035;SDS011;23642;42.658;23.350;2023-07-31T05:43:30;108.97;;;101.70;;
2035;SDS011;23642;42.658;23.350;2023-07-31T05:45:56;110.90;;;103.50;;
2035;SDS011;23642;42.658;23.350;2023-07-31T05:48:23;106.57;;;99.50;;
2035;SDS011;23642;42.658;23.350;2023-07-31T05:50:50;107.83;;;99.97;;
2035;SDS011;23642;42.658;23.350;2023-07-31T05:53:17;106.33;;;99.20;;
2035;SDS011;23642;42.658;23.350;2023-07-31T05:55:45;105.93;;;98.40;;
2035;SDS011;23642;42.658;23.350;2023-07-31T05:58:11;104.00;;;97.00;;
2035;SDS011;23642;42.658;23.350;2023-07-31T06:00:42;109.00;;;101.70;;
2035;SDS011;23642;42.658;23.350;2023-07-31T06:03:09;107.47;;;100.47;;
2035;SDS011;23642;42.658;23.350;2023-07-31T06:05:36;108.70;;;100.97;;
2035;SDS011;23642;42.658;23.350;2023-07-31T06:08:03;107.77;;;100.57;;
2035;SDS011;23642;42.658;23.350;2023-07-31T06:10:30;102.10;;;95.50;;
2035;SDS011;23642;42.658;23.350;2023-07-31T06:12:57;104.67;;;97.97;;
2035;SDS011;23642;42.658;23.350;2023-07-31T06:15:24;106.47;;;99.57;;
2035;SDS011;23642;42.658;23.350;2023-07-31T06:17:55;106.77;;;99.70;;
2035;SDS011;23642;42.658;23.350;2023-07-31T06:20:22;106.90;;;100.07;;
2035;SDS011;23642;42.658;23.350;2023-07-31T06:22:51;104.00;;;97.13;;
2035;SDS011;23642;42.658;23.350;2023-07-31T06:25:21;107.50;;;100.50;;
2035;SDS011;23642;42.658;23.350;2023-07-31T06:27:51;105.93;;;99.23;;
2035;SDS011;23642;42.658;23.350;2023-07-31T06:30:18;107.43;;;100.70;;
2035;SDS011;23642;42.658;23.350;2023-07-31T06:32:46;112.73;;;105.97;;
2035;SDS011;23642;42.658;23.350;2023-07-31T06:35:14;114.07;;;107.27;;
2035;SDS011;23642;42.658;23.350;2023-07-31T06:37:41;115.80;;;108.90;;
2035;SDS011;23642;42.658;23.350;2023-07-31T06:40:14;114.07;;;107.27;;
2035;SDS011;23642;42.658;23.350;2023-07-31T06:42:42;117.53;;;109.87;;
2035;SDS011;23642;42.658;23.350;2023-07-31T06:45:09;118.50;;;111.30;;
2035;SDS011;23642;42.658;23.350;2023-07-31T06:47:39;118.10;;;111.00;;
2035;SDS011;23642;42.658;23.350;2023-07-31T06:50:11;115.23;;;108.33;;
2035;SDS011;23642;42.658;23.350;2023-07-31T06:52:41;118.53;;;111.33;;
2035;SDS011;23642;42.658;23.350;2023-07-31T06:55:16;118.23;;;111.13;;
2035;SDS011;23642;42.658;23.350;2023-07-31T06:57:47;117.07;;;109.87;;
2035;SDS011;23642;42.658;23.350;2023-07-31T07:00:18;118.10;;;111.00;;
2035;SDS011;23642;42.658;23.350;2023-07-31T07:02:46;117.03;;;109.93;;
2035;SDS011;23642;42.658;23.350;2023-07-31T07:05:14;117.93;;;110.83;;
2035;SDS011;23642;42.658;23.350;2023-07-31T07:07:44;115.47;;;108.57;;
2035;SDS011;23642;42.658;23.350;2023-07-31T07:10:11;117.87;;;110.73;;
2035;SDS011;23642;42.658;23.350;2023-07-31T07:12:40;118.70;;;111.67;;
2035;SDS011;23642;42.658;23.350;2023-07-31T07:15:09;122.40;;;115.00;;
2035;SDS011;23642;42.658;23.350;2023-07-31T07:17:38;117.13;;;109.93;;
2035;SDS011;23642;42.658;23.350;2023-07-31T07:20:10;115.87;;;108.90;;
2035;SDS011;23642;42.658;23.350;2023-07-31T07:22:41;115.40;;;108.40;;
2035;SDS011;23642;42.658;23.350;2023-07-31T07:25:18;116.77;;;109.67;;
2035;SDS011;23642;42.658;23.350;2023-07-31T07:27:46;119.20;;;112.00;;
2035;SDS011;23642;42.658;23.350;2023-07-31T07:30:20;116.00;;;109.00;;
2035;SDS011;23642;42.658;23.350;2023-07-31T07:35:55;118.33;;;111.00;;
2035;SDS011;23642;42.658;23.350;2023-07-31T07:38:30;113.63;;;106.50;;
2035;SDS011;23642;42.658;23.350;2023-07-31T07:40:57;114.77;;;107.87;;
2035;SDS011;23642;42.658;23.350;2023-07-31T07:43:27;112.87;;;105.80;;
2035;SDS011;23642;42.658;23.350;2023-07-31T07:45:54;115.80;;;108.20;;
2035;SDS011;23642;42.658;23.350;2023-07-31T07:48:21;115.33;;;108.43;;
2035;SDS011;23642;42.658;23.350;2023-07-31T07:51:01;117.77;;;110.33;;
2035;SDS011;23642;42.658;23.350;2023-07-31T07:53:32;118.67;;;111.37;;
2035;SDS011;23642;42.658;23.350;2023-07-31T07:56:02;114.33;;;107.50;;
2035;SDS011;23642;42.658;23.350;2023-07-31T07:58:30;112.83;;;105.80;;
2035;SDS011;23642;42.658;23.350;2023-07-31T08:01:00;114.30;;;107.40;;
2035;SDS011;23642;42.658;23.350;2023-07-31T08:03:28;111.53;;;104.33;;
2035;SDS011;23642;42.658;23.350;2023-07-31T08:05:57;111.33;;;103.97;;
2035;SDS011;23642;42.658;23.350;2023-07-31T08:08:25;112.80;;;106.00;;
2035;SDS011;23642;42.658;23.350;2023-07-31T08:10:55;112.83;;;106.13;;
2035;SDS011;23642;42.658;23.350;2023-07-31T08:13:34;113.03;;;105.97;;
2035;SDS011;23642;42.658;23.350;2023-07-31T08:16:03;114.20;;;107.10;;
2035;SDS011;23642;42.658;23.350;2023-07-31T08:18:31;113.80;;;107.00;;
2035;SDS011;23642;42.658;23.350;2023-07-31T08:20:59;111.53;;;104.83;;
2035;SDS011;23642;42.658;23.350;2023-07-31T08:23:28;114.73;;;107.87;;
2035;SDS011;23642;42.658;23.350;2023-07-31T08:25:56;115.07;;;107.90;;
2035;SDS011;23642;42.658;23.350;2023-07-31T08:28:23;112.20;;;105.40;;
2035;SDS011;23642;42.658;23.350;2023-07-31T08:30:51;111.17;;;104.47;;
2035;SDS011;23642;42.658;23.350;2023-07-31T08:33:19;115.10;;;108.00;;
2035;SDS011;23642;42.658;23.350;2023-07-31T08:35:52;110.90;;;104.17;;
2035;SDS011;23642;42.658;23.350;2023-07-31T08:38:21;111.00;;;104.43;;
2035;SDS011;23642;42.658;23.350;2023-07-31T08:40:54;114.40;;;107.20;;
2035;SDS011;23642;42.658;23.350;2023-07-31T08:43:33;113.37;;;106.67;;
2035;SDS011;23642;42.658;23.350;2023-07-31T08:46:01;113.07;;;106.33;;
2035;SDS011;23642;42.658;23.350;2023-07-31T08:48:32;114.87;;;108.07;;
2035;SDS011;23642;42.658;23.350;2023-07-31T08:51:02;114.93;;;108.10;;
2035;SDS011;23642;42.658;23.350;2023-07-31T08:53:48;121.77;;;114.67;;
2035;SDS011;23642;42.658;23.350;2023-07-31T08:56:17;120.47;;;113.47;;
2035;SDS011;23642;42.658;23.350;2023-07-31T08:58:49;122.30;;;114.97;;
2035;SDS011;23642;42.658;23.350;2023-07-31T09:01:29;118.60;;;111.70;;
2035;SDS011;23642;42.658;23.350;2023-07-31T09:04:02;120.07;;;113.27;;
2035;SDS011;23642;42.658;23.350;2023-07-31T09:09:20;120.70;;;113.70;;
2035;SDS011;23642;42.658;23.350;2023-07-31T09:11:54;118.70;;;111.93;;
2035;SDS011;23642;42.658;23.350;2023-07-31T09:14:28;122.40;;;115.30;;
2035;SDS011;23642;42.658;23.350;2023-07-31T09:16:56;120.97;;;113.97;;
2035;SDS011;23642;42.658;23.350;2023-07-31T09:19:28;123.03;;;116.13;;
2035;SDS011;23642;42.658;23.350;2023-07-31T09:22:02;119.00;;;112.30;;
2035;SDS011;23642;42.658;23.350;2023-07-31T09:24:31;122.17;;;115.27;;
2035;SDS011;23642;42.658;23.350;2023-07-31T09:27:04;120.83;;;113.73;;
2035;SDS011;23642;42.658;23.350;2023-07-31T09:29:32;118.23;;;111.43;;
2035;SDS011;23642;42.658;23.350;2023-07-31T09:32:02;119.07;;;112.27;;
2035;SDS011;23642;42.658;23.350;2023-07-31T09:34:30;121.40;;;114.50;;
2035;SDS011;23642;42.658;23.350;2023-07-31T09:37:14;121.40;;;114.40;;
2035;SDS011;23642;42.658;23.350;2023-07-31T09:39:46;118.63;;;111.70;;
2035;SDS011;23642;42.658;23.350;2023-07-31T09:42:31;118.50;;;111.67;;
2035;SDS011;23642;42.658;23.350;2023-07-31T09:45:06;121.30;;;114.30;;
2035;SDS011;23642;42.658;23.350;2023-07-31T09:47:34;122.70;;;115.70;;
2035;SDS011;23642;42.658;23.350;2023-07-31T09:50:12;121.00;;;114.10;;
2035;SDS011;23642;42.658;23.350;2023-07-31T09:52:42;122.10;;;115.20;;
2035;SDS011;23642;42.658;23.350;2023-07-31T09:55:29;123.13;;;115.73;;
2035;SDS011;23642;42.658;23.350;2023-07-31T09:58:10;119.93;;;113.03;;
2035;SDS011;23642;42.658;23.350;2023-07-31T10:00:59;120.20;;;113.40;;
2035;SDS011;23642;42.658;23.350;2023-07-31T10:03:40;120.40;;;113.40;;
2035;SDS011;23642;42.658;23.350;2023-07-31T10:06:11;118.43;;;111.53;;
2035;SDS011;23642;42.658;23.350;2023-07-31T10:09:01;123.43;;;116.40;;
2035;SDS011;23642;42.658;23.350;2023-07-31T10:14:31;121.20;;;114.20;;
2035;SDS011;23642;42.658;23.350;2023-07-31T10:16:59;119.50;;;112.50;;
2035;SDS011;23642;42.658;23.350;2023-07-31T10:19:34;118.53;;;111.83;;
2035;SDS011;23642;42.658;23.350;2023-07-31T10:22:05;119.10;;;112.30;;
2035;SDS011;23642;42.658;23.350;2023-07-31T10:24:43;121.23;;;114.43;;
2035;SDS011;23642;42.658;23.350;2023-07-31T10:27:12;120.87;;;113.80;;
2035;SDS011;23642;42.658;23.350;2023-07-31T10:29:43;120.67;;;113.77;;
2035;SDS011;23642;42.658;23.350;2023-07-31T10:32:13;119.00;;;112.10;;
2035;SDS011;23642;42.658;23.350;2023-07-31T10:34:56;117.03;;;109.80;;
2035;SDS011;23642;42.658;23.350;2023-07-31T10:37:25;118.67;;;111.87;;
2035;SDS011;23642;42.658;23.350;2023-07-31T10:39:58;118.40;;;111.70;;
2035;SDS011;23642;42.658;23.350;2023-07-31T10:42:31;122.50;;;115.60;;
2035;SDS011;23642;42.658;23.350;2023-07-31T10:45:02;122.30;;;115.10;;
2035;SDS011;23642;42.658;23.350;2023-07-31T10:47:39;123.53;;;116.63;;
2035;SDS011;23642;42.658;23.350;2023-07-31T10:50:16;118.93;;;112.23;;
2035;SDS011;23642;42.658;23.350;2023-07-31T10:52:49;121.17;;;113.70;;
2035;SDS011;23642;42.658;23.350;2023-07-31T10:55:33;121.33;;;114.50;;
2035;SDS011;23642;42.658;23.350;2023-07-31T10:58:20;117.90;;;111.20;;
2035;SDS011;23642;42.658;23.350;2023-07-31T11:00:50;120.47;;;113.37;;
2035;SDS011;23642;42.658;23.350;2023-07-31T11:03:40;120.13;;;113.40;;
2035;SDS011;23642;42.658;23.350;2023-07-31T11:06:09;119.63;;;112.83;;
2035;SDS011;23642;42.658;23.350;2023-07-31T11:08:41;121.17;;;114.20;;
2035;SDS011;23642;42.658;23.350;2023-07-31T11:11:10;122.30;;;115.20;;
2035;SDS011;23642;42.658;23.350;2023-07-31T11:13:40;120.90;;;114.10;;
2035;SDS011;23642;42.658;23.350;2023-07-31T11:16:18;118.80;;;112.13;;
2035;SDS011;23642;42.658;23.350;2023-07-31T11:18:46;118.87;;;111.97;;
2035;SDS011;23642;42.658;23.350;2023-07-31T11:21:22;120.87;;;113.97;;
2035;SDS011;23642;42.658;23.350;2023-07-31T11:23:52;119.60;;;112.97;;
2035;SDS011;23642;42.658;23.350;2023-07-31T11:26:25;110.83;;;104.20;;
2035;SDS011;23642;42.658;23.350;2023-07-31T11:28:52;118.93;;;112.23;;
2035;SDS011;23642;42.658;23.350;2023-07-31T11:31:21;123.83;;;116.50;;
2035;SDS011;23642;42.658;23.350;2023-07-31T11:33:51;117.10;;;110.50;;
2035;SDS011;23642;42.658;23.350;2023-07-31T11:36:32;120.63;;;113.73;;
2035;SDS011;23642;42.658;23.350;2023-07-31T11:39:04;122.00;;;115.10;;
2035;SDS011;23642;42.658;23.350;2023-07-31T11:41:32;120.87;;;114.07;;
2035;SDS011;23642;42.658;23.350;2023-07-31T11:43:59;122.33;;;115.10;;
2035;SDS011;23642;42.658;23.350;2023-07-31T11:46:31;125.20;;;117.90;;
2035;SDS011;23642;42.658;23.350;2023-07-31T11:49:01;121.60;;;114.70;;
2035;SDS011;23642;42.658;23.350;2023-07-31T11:51:31;120.60;;;113.70;;
2035;SDS011;23642;42.658;23.350;2023-07-31T11:54:01;122.10;;;115.30;;
2035;SDS011;23642;42.658;23.350;2023-07-31T11:56:32;123.50;;;116.60;;
2035;SDS011;23642;42.658;23.350;2023-07-31T11:59:02;121.77;;;114.60;;
2035;SDS011;23642;42.658;23.350;2023-07-31T12:01:38;123.53;;;116.27;;
2035;SDS011;23642;42.658;23.350;2023-07-31T12:04:08;121.63;;;114.83;;
2035;SDS011;23642;42.658;23.350;2023-07-31T12:06:40;120.40;;;113.60;;
2035;SDS011;23642;42.658;23.350;2023-07-31T12:09:21;117.50;;;110.80;;
2035;SDS011;23642;42.658;23.350;2023-07-31T12:11:51;123.80;;;115.93;;
2035;SDS011;23642;42.658;23.350;2023-07-31T12:14:22;120.13;;;113.43;;
2035;SDS011;23642;42.658;23.350;2023-07-31T12:16:58;123.43;;;116.43;;
2035;SDS011;23642;42.658;23.350;2023-07-31T12:19:28;125.03;;;117.70;;
2035;SDS011;23642;42.658;23.350;2023-07-31T12:22:17;112.60;;;106.20;;
2035;SDS011;23642;42.658;23.350;2023-07-31T12:24:46;122.40;;;115.40;;
2035;SDS011;23642;42.658;23.350;2023-07-31T12:27:37;127.23;;;119.87;;
2035;SDS011;23642;42.658;23.350;2023-07-31T12:30:27;128.73;;;121.33;;
2035;SDS011;23642;42.658;23.350;2023-07-31T12:33:19;127.90;;;120.80;;
2035;SDS011;23642;42.658;23.350;2023-07-31T12:36:11;129.87;;;122.60;;
2035;SDS011;23642;42.658;23.350;2023-07-31T12:38:48;128.03;;;120.63;;
2035;SDS011;23642;42.658;23.350;2023-07-31T12:41:27;126.77;;;119.73;;
2035;SDS011;23642;42.658;23.350;2023-07-31T12:43:58;127.70;;;120.50;;
2035;SDS011;23642;42.658;23.350;2023-07-31T12:46:35;122.83;;;115.93;;
2035;SDS011;23642;42.658;23.350;2023-07-31T12:49:05;126.03;;;118.93;;
2035;SDS011;23642;42.658;23.350;2023-07-31T12:51:35;128.90;;;121.80;;
2035;SDS011;23642;42.658;23.350;2023-07-31T12:54:17;120.77;;;113.87;;
2035;SDS011;23642;42.658;23.350;2023-07-31T13:00:21;128.30;;;121.20;;
2035;SDS011;23642;42.658;23.350;2023-07-31T13:03:17;127.10;;;120.20;;
2035;SDS011;23642;42.658;23.350;2023-07-31T13:09:39;126.17;;;119.20;;
2035;SDS011;23642;42.658;23.350;2023-07-31T13:12:11;126.20;;;119.10;;
2035;SDS011;23642;42.658;23.350;2023-07-31T13:14:47;128.37;;;121.20;;
2035;SDS011;23642;42.658;23.350;2023-07-31T13:17:20;128.30;;;120.50;;
2035;SDS011;23642;42.658;23.350;2023-07-31T13:19:48;125.70;;;118.60;;
2035;SDS011;23642;42.658;23.350;2023-07-31T13:23:36;129.63;;;122.20;;
2035;SDS011;23642;42.658;23.350;2023-07-31T13:25:48;118.57;;;111.77;;
2035;SDS011;23642;42.658;23.350;2023-07-31T13:28:16;117.93;;;111.03;;
2035;SDS011;23642;42.658;23.350;2023-07-31T13:30:44;107.80;;;101.50;;
2035;SDS011;23642;42.658;23.350;2023-07-31T13:33:18;109.20;;;102.90;;
2035;SDS011;23642;42.658;23.350;2023-07-31T13:35:46;118.50;;;111.90;;
2035;SDS011;23642;42.658;23.350;2023-07-31T13:38:13;115.10;;;108.40;;
2035;SDS011;23642;42.658;23.350;2023-07-31T13:40:41;115.87;;;109.47;;
2035;SDS011;23642;42.658;23.350;2023-07-31T13:43:10;115.93;;;109.23;;
2035;SDS011;23642;42.658;23.350;2023-07-31T13:45:37;114.90;;;108.43;;
2035;SDS011;23642;42.658;23.350;2023-07-31T13:48:04;113.97;;;107.50;;
2035;SDS011;23642;42.658;23.350;2023-07-31T13:50:31;117.27;;;110.67;;
2035;SDS011;23642;42.658;23.350;2023-07-31T13:53:01;118.60;;;112.10;;
2035;SDS011;23642;42.658;23.350;2023-07-31T13:55:32;119.20;;;112.67;;
2035;SDS011;23642;42.658;23.350;2023-07-31T13:58:02;118.50;;;111.73;;
2035;SDS011;23642;42.658;23.350;2023-07-31T14:00:31;119.43;;;112.83;;
2035;SDS011;23642;42.658;23.350;2023-07-31T14:03:00;116.80;;;110.30;;
2035;SDS011;23642;42.658;23.350;2023-07-31T14:05:27;117.13;;;110.63;;
2035;SDS011;23642;42.658;23.350;2023-07-31T14:07:57;117.30;;;110.50;;
2035;SDS011;23642;42.658;23.350;2023-07-31T14:10:27;118.47;;;111.87;;
2035;SDS011;23642;42.658;23.350;2023-07-31T14:12:55;117.47;;;110.87;;
2035;SDS011;23642;42.658;23.350;2023-07-31T14:15:25;114.57;;;107.67;;
2035;SDS011;23642;42.658;23.350;2023-07-31T14:18:03;114.60;;;108.20;;
2035;SDS011;23642;42.658;23.350;2023-07-31T14:20:35;116.70;;;110.13;;
2035;SDS011;23642;42.658;23.350;2023-07-31T14:23:03;117.33;;;110.63;;
2035;SDS011;23642;42.658;23.350;2023-07-31T14:25:30;113.50;;;107.10;;
2035;SDS011;23642;42.658;23.350;2023-07-31T14:28:00;118.67;;;112.07;;
2035;SDS011;23642;42.658;23.350;2023-07-31T14:30:27;116.70;;;110.00;;
2035;SDS011;23642;42.658;23.350;2023-07-31T14:32:55;115.10;;;108.50;;